HEAX/ALY METAR and TAF weather

Enter ICAO airport designator
Station Type Date Time Source
HEAX METAR 2020/04/06 18:00 UTC NOAA

HEAX 061800Z 32010KT CAVOK 17/11 Q1018 NOSIG


Station Type Date Time Source
HEAX Decoded METAR 2020/04/06 18:00 UTC NOAA

Alexandria / Nouzha, Egypt (HEAX) 31-12N 029-57E 7M
Apr 06, 2020 - 02:00 PM EDT / 2020.04.06 1800 UTC
Wind: from the NW (320 degrees) at 12 MPH (10 KT):0
Visibility: greater than 7 mile(s):0
Temperature: 62 F (17 C)
Dew Point: 51 F (11 C)
Relative Humidity: 67%
Pressure (altimeter): 30.06 in. Hg (1018 hPa)
ob: HEAX 061800Z 32010KT CAVOK 17/11 Q1018 NOSIG
cycle: 18

Station Type Date Time Source
HEAX TAF 2020/04/06 18:54 UTC NOAA

TAF TAF HEAX 061700Z 0618/0724 33007KT 9999 SCT020
TEMPO 0703/0706 VRB03KT 4000 BR NSC

Example: see airport list